Time;durP1;ratioP1;P1;durP2;ratioP2;P2;SDS_P1;SDS_P2;PMS_P1;PMS_P2;Temp;Humidity;BMP_temperature;BMP_pressure;BME280_temperature;BME280_humidity;BME280_pressure;Samples;Min_cycle;Max_cycle;Signal;HPM_P1;HPM_P2
2023/07/25 00:00:27;;;;;;;1.10;1.10;;;20.90;99.90;;;21.31;nan;99578.31;4978738;28;21017;-65
2023/07/25 00:02:54;;;;;;;0.97;0.90;;;20.90;99.90;;;21.33;nan;99578.91;4987611;28;20654;-68
2023/07/25 00:05:21;;;;;;;1.23;1.23;;;21.00;99.90;;;21.28;nan;99574.22;4979396;28;21041;-68
2023/07/25 00:07:48;;;;;;;1.20;1.20;;;20.90;99.90;;;21.24;nan;99569.53;4972185;28;20642;-69
2023/07/25 00:10:15;;;;;;;0.90;0.90;;;20.90;99.90;;;21.19;nan;99559.50;4990967;28;20649;-66
2023/07/25 00:12:43;;;;;;;2.50;1.17;;;20.80;99.90;;;21.17;nan;99553.59;4984809;28;20638;-68
2023/07/25 00:15:11;;;;;;;1.67;1.30;;;20.80;99.90;;;21.14;nan;99548.72;4973543;28;20639;-66
2023/07/25 00:17:38;;;;;;;1.50;1.40;;;20.80;99.90;;;21.11;nan;99546.47;4979443;28;21239;-64
2023/07/25 00:20:05;;;;;;;1.30;1.30;;;20.80;99.90;;;21.07;nan;99536.47;4977275;28;20641;-66
2023/07/25 00:22:32;;;;;;;1.27;1.17;;;20.70;99.90;;;21.03;nan;99525.44;4962031;28;20688;-66
2023/07/25 00:24:59;;;;;;;1.70;1.60;;;20.70;99.90;;;21.00;nan;99520.50;4979891;28;20634;-66
2023/07/25 00:27:26;;;;;;;1.07;1.07;;;20.60;99.90;;;21.01;nan;99529.28;4978845;28;20682;-68
2023/07/25 00:29:54;;;;;;;1.10;1.10;;;20.60;99.90;;;20.97;nan;99531.53;4979244;28;21000;-66
2023/07/25 00:32:21;;;;;;;1.63;1.53;;;20.60;99.90;;;20.96;nan;99535.19;4985786;28;20657;-67
2023/07/25 00:34:50;;;;;;;1.60;1.50;;;20.60;99.90;;;20.93;nan;99525.03;4986194;28;20642;-66
2023/07/25 00:37:17;;;;;;;1.23;1.17;;;20.60;99.90;;;20.93;nan;99525.03;4975322;28;20676;-68
2023/07/25 00:39:44;;;;;;;1.07;1.03;;;20.60;99.90;;;20.93;nan;99514.41;4978820;28;20671;-68
2023/07/25 00:42:11;;;;;;;1.33;1.33;;;20.60;99.90;;;20.92;nan;99507.47;4983954;28;20647;-67
2023/07/25 00:44:38;;;;;;;1.00;1.00;;;20.60;99.90;;;20.93;nan;99511.75;4978290;28;20658;-65
2023/07/25 00:47:05;;;;;;;1.10;1.10;;;20.60;99.90;;;20.96;nan;99516.63;4990482;28;20720;-66
2023/07/25 00:49:32;;;;;;;1.40;1.30;;;20.60;99.90;;;20.93;nan;99513.59;4986666;28;20668;-67
2023/07/25 00:51:59;;;;;;;1.43;1.37;;;20.60;99.90;;;20.87;nan;99520.50;4985665;28;20666;-65
2023/07/25 00:54:27;;;;;;;1.70;1.60;;;20.60;99.90;;;20.81;nan;99511.53;4973933;28;20700;-67
2023/07/25 00:56:54;;;;;;;1.67;1.57;;;20.50;99.90;;;20.75;nan;99522.94;4969321;28;20697;-68
2023/07/25 00:59:21;;;;;;;1.70;1.60;;;20.40;99.90;;;20.75;nan;99514.19;4989477;28;21202;-66
2023/07/25 01:01:48;;;;;;;1.60;1.50;;;20.40;99.90;;;20.72;nan;99514.59;4970881;28;20642;-68
2023/07/25 01:04:15;;;;;;;1.40;1.30;;;20.40;99.90;;;20.64;nan;99502.34;4976949;28;20635;-69
2023/07/25 01:06:42;;;;;;;2.67;1.60;;;20.30;99.90;;;20.59;nan;99506.63;4984261;28;20761;-66
2023/07/25 01:09:09;;;;;;;1.47;1.37;;;20.30;99.90;;;20.55;nan;99502.75;4980730;28;20638;-66
2023/07/25 01:11:36;;;;;;;1.80;1.70;;;20.20;99.90;;;20.52;nan;99503.97;4989281;28;20998;-65
2023/07/25 01:14:03;;;;;;;1.50;1.40;;;20.20;99.90;;;20.48;nan;99510.69;4991237;28;20638;-68
2023/07/25 01:16:30;;;;;;;2.23;1.63;;;20.20;99.90;;;20.43;nan;99507.81;4984414;28;20674;-67
2023/07/25 01:18:58;;;;;;;1.30;1.20;;;20.10;99.90;;;20.38;nan;99498.84;4981685;28;20642;-67
2023/07/25 01:21:25;;;;;;;1.87;1.60;;;20.00;99.90;;;20.35;nan;99497.41;4976332;28;20631;-65
2023/07/25 01:23:52;;;;;;;1.80;1.60;;;20.00;99.90;;;20.36;nan;99501.66;4977379;28;20638;-67
2023/07/25 01:26:19;;;;;;;1.40;1.40;;;20.00;99.90;;;20.34;nan;99493.09;4981474;28;20672;-66
2023/07/25 01:28:46;;;;;;;1.67;1.57;;;20.00;99.90;;;20.33;nan;99490.66;4989689;28;20673;-67
2023/07/25 01:31:13;;;;;;;1.63;1.50;;;20.00;99.90;;;20.27;nan;99487.00;4983716;28;20650;-66
2023/07/25 01:33:40;;;;;;;1.80;1.70;;;20.00;99.90;;;20.25;nan;99485.56;4985784;28;20639;-66
2023/07/25 01:36:07;;;;;;;1.23;1.23;;;19.90;99.90;;;20.22;nan;99483.28;4965089;28;20662;-66
2023/07/25 01:38:34;;;;;;;1.60;1.60;;;19.90;99.90;;;20.19;nan;99478.38;4965492;28;21207;-65
2023/07/25 01:41:01;;;;;;;1.43;1.33;;;19.90;99.90;;;20.16;nan;99476.13;4964815;28;20636;-66
2023/07/25 01:43:28;;;;;;;1.50;1.40;;;19.80;99.90;;;20.11;nan;99477.53;4980066;28;20639;-67
2023/07/25 01:45:55;;;;;;;1.53;1.43;;;19.80;99.90;;;20.09;nan;99484.88;4973011;28;20670;-65
2023/07/25 01:48:22;;;;;;;3.87;1.50;;;19.80;99.90;;;20.06;nan;99485.25;4989600;28;20696;-67
2023/07/25 01:50:49;;;;;;;1.80;1.70;;;19.80;99.90;;;20.09;nan;99484.03;4983848;28;20721;-66
2023/07/25 01:53:16;;;;;;;1.70;1.60;;;19.70;99.90;;;20.09;nan;99479.56;4988278;28;20688;-66
2023/07/25 01:55:43;;;;;;;1.80;1.70;;;19.80;99.90;;;20.06;nan;99484.44;4978782;28;20658;-64
2023/07/25 01:58:10;;;;;;;1.20;1.20;;;19.80;99.90;;;20.03;nan;99484.84;4974076;28;21453;-65
2023/07/25 02:00:37;;;;;;;2.20;1.50;;;19.70;99.90;;;20.00;nan;99494.00;4984282;28;20639;-66
2023/07/25 02:03:04;;;;;;;1.30;1.30;;;19.70;99.90;;;19.97;nan;99499.69;4981837;28;20645;-66
2023/07/25 02:05:31;;;;;;;1.10;1.10;;;19.70;99.90;;;19.89;nan;99493.75;4964410;28;20734;-65
2023/07/25 02:07:57;;;;;;;1.50;1.40;;;19.60;99.90;;;19.83;nan;99495.34;4974722;28;21029;-66
2023/07/25 02:10:24;;;;;;;1.77;1.40;;;19.50;99.90;;;19.77;nan;99490.84;4969275;28;20649;-66
2023/07/25 02:12:53;;;;;;;1.30;1.20;;;19.50;99.90;;;19.69;nan;99496.31;4970042;28;21237;-66
2023/07/25 02:15:19;;;;;;;1.40;1.30;;;19.40;99.90;;;19.57;nan;99500.50;4978492;28;20686;-65
2023/07/25 02:17:47;;;;;;;1.10;1.10;;;19.30;99.90;;;19.54;nan;99497.44;4986724;28;20673;-67
2023/07/25 02:20:14;;;;;;;1.53;1.43;;;19.20;99.90;;;19.50;nan;99501.47;4988605;28;20644;-67
2023/07/25 02:22:41;;;;;;;1.27;1.17;;;19.20;99.90;;;19.49;nan;99499.81;4977641;28;20635;-66
2023/07/25 02:25:08;;;;;;;1.67;1.40;;;19.20;99.90;;;19.52;nan;99499.44;4973073;28;20638;-65
2023/07/25 02:27:35;;;;;;;1.67;1.40;;;19.20;99.90;;;19.51;nan;99501.28;4985383;28;20638;-66
2023/07/25 02:30:02;;;;;;;1.20;1.20;;;19.20;99.90;;;19.51;nan;99498.63;4990313;28;21199;-65
2023/07/25 02:32:29;;;;;;;1.70;1.60;;;19.20;99.90;;;19.50;nan;99501.47;4986702;28;20649;-66
2023/07/25 02:34:56;;;;;;;3.13;1.40;;;19.20;99.90;;;19.48;nan;99496.38;4984019;28;21067;-65
2023/07/25 02:37:27;;;;;;;1.17;1.10;;;19.10;99.90;;;19.41;nan;99492.88;4978329;28;20681;-65
2023/07/25 02:39:54;;;;;;;1.47;1.37;;;19.10;99.90;;;19.31;nan;99489.72;4983604;28;21086;-65
2023/07/25 02:42:21;;;;;;;1.50;1.40;;;19.10;99.90;;;19.18;nan;99493.09;4988892;28;20639;-66
2023/07/25 02:44:48;;;;;;;1.67;1.43;;;18.90;99.90;;;19.13;nan;99484.09;4971243;28;21038;-67
2023/07/25 02:47:15;;;;;;;1.23;1.13;;;18.80;99.90;;;19.01;nan;99486.47;4973711;28;20677;-67
2023/07/25 02:49:42;;;;;;;2.23;1.47;;;18.70;99.90;;;18.93;nan;99489.22;4986076;28;20641;-66
2023/07/25 02:52:09;;;;;;;1.47;1.37;;;18.70;99.90;;;18.88;nan;99488.19;4957099;28;20654;-66
2023/07/25 02:54:38;;;;;;;1.80;1.70;;;18.60;99.90;;;18.83;nan;99475.53;4984536;28;21028;-66
2023/07/25 02:57:09;;;;;;;2.40;1.60;;;18.50;99.90;;;18.80;nan;99467.19;4984237;28;20674;-64
2023/07/25 02:59:36;;;;;;;1.30;1.20;;;18.50;99.90;;;18.81;nan;99474.09;4983609;28;20618;-65
2023/07/25 03:02:04;;;;;;;1.53;1.43;;;18.50;99.90;;;18.76;nan;99469.38;4971500;28;20631;-66
2023/07/25 03:04:31;;;;;;;1.27;1.27;;;18.40;99.90;;;18.73;nan;99463.66;4976377;28;20630;-67
2023/07/25 03:06:57;;;;;;;1.00;1.00;;;18.40;99.90;;;18.74;nan;99454.72;4977909;28;21254;-66
2023/07/25 03:09:24;;;;;;;4.83;1.20;;;18.40;99.90;;;18.73;nan;99448.63;4970795;28;20643;-66
2023/07/25 03:11:54;;;;;;;1.47;1.37;;;18.40;99.90;;;18.75;nan;99436.03;4983520;28;20638;-66
2023/07/25 03:14:21;;;;;;;1.77;1.10;;;18.40;99.90;;;18.77;nan;99415.53;4990026;28;20637;-67
2023/07/25 03:16:49;;;;;;;1.30;1.20;;;18.50;99.90;;;18.73;nan;99416.91;4987769;28;20661;-65
2023/07/25 03:19:16;;;;;;;1.30;1.20;;;18.40;99.90;;;18.71;nan;99426.03;4992618;28;21275;-66
2023/07/25 03:21:42;;;;;;;1.77;1.30;;;18.40;99.90;;;18.68;nan;99416.66;4983702;28;20642;-66
2023/07/25 03:24:12;;;;;;;1.20;1.20;;;18.40;99.90;;;18.66;nan;99415.22;4967683;28;20639;-66
2023/07/25 03:26:39;;;;;;;1.50;1.40;;;18.30;99.90;;;18.66;nan;99409.94;4987695;28;20646;-66
2023/07/25 03:29:06;;;;;;;1.43;1.33;;;18.30;99.90;;;18.71;nan;99410.19;4988068;28;20634;-65
2023/07/25 03:31:34;;;;;;;1.70;1.60;;;18.30;99.90;;;18.79;nan;99405.56;4992604;28;21041;-66
2023/07/25 03:34:00;;;;;;;1.47;1.47;;;18.50;99.90;;;18.86;nan;99405.63;4983299;28;21465;-65
2023/07/25 03:36:27;;;;;;;1.63;1.53;;;18.50;99.90;;;18.91;nan;99405.88;4982310;28;20650;-66
2023/07/25 03:38:54;;;;;;;1.77;1.67;;;18.60;99.90;;;18.94;nan;99402.84;4981932;28;20678;-65
2023/07/25 03:41:21;;;;;;;1.20;1.20;;;18.60;99.90;;;18.96;nan;99408.75;4992667;28;20630;-66
2023/07/25 03:43:48;;;;;;;1.90;1.80;;;18.60;99.90;;;18.94;nan;99416.03;4985237;28;21031;-65
2023/07/25 03:46:15;;;;;;;1.87;1.47;;;18.60;99.90;;;18.96;nan;99406.09;4972953;28;20667;-66
2023/07/25 03:48:42;;;;;;;1.70;1.60;;;18.60;99.90;;;18.97;nan;99408.56;4975888;28;20685;-65
2023/07/25 03:51:09;;;;;;;1.50;1.50;;;18.70;99.90;;;18.98;nan;99410.19;4976929;28;20642;-66
2023/07/25 03:53:36;;;;;;;3.93;1.77;;;18.70;99.90;;;19.01;nan;99412.47;4979236;28;20642;-65
2023/07/25 03:56:03;;;;;;;1.80;1.57;;;18.70;99.90;;;18.96;nan;99408.75;4991260;28;21135;-65
2023/07/25 03:58:30;;;;;;;1.53;1.37;;;18.70;99.90;;;18.93;nan;99412.59;4972798;28;21271;-65
2023/07/25 04:00:57;;;;;;;1.07;1.07;;;18.60;99.90;;;18.91;nan;99404.03;4972572;28;20702;-66
2023/07/25 04:03:24;;;;;;;1.20;1.20;;;18.60;99.90;;;18.90;nan;99412.97;4971993;28;20650;-65
2023/07/25 04:05:53;;;;;;;1.47;1.37;;;18.60;99.90;;;18.87;nan;99394.84;4970164;28;20663;-66
2023/07/25 04:08:20;;;;;;;1.57;1.47;;;18.50;99.90;;;18.85;nan;99399.53;4974963;28;20689;-65
2023/07/25 04:10:47;;;;;;;1.40;1.30;;;18.60;99.90;;;18.87;nan;99394.84;4972972;28;20649;-66
2023/07/25 04:13:14;;;;;;;1.30;1.23;;;18.60;99.90;;;18.88;nan;99398.31;4984532;28;21203;-67
2023/07/25 04:15:41;;;;;;;1.40;1.40;;;18.60;99.90;;;18.89;nan;99407.91;4990626;28;20654;-66
2023/07/25 04:18:08;;;;;;;1.10;1.07;;;18.60;99.90;;;18.89;nan;99408.69;4982087;28;20681;-70
2023/07/25 04:20:35;;;;;;;1.20;1.13;;;18.60;99.90;;;18.92;nan;99397.75;4984184;28;20641;-65
2023/07/25 04:23:02;;;;;;;1.47;1.40;;;18.60;99.90;;;18.98;nan;99398.78;4983224;28;20647;-65
2023/07/25 04:25:29;;;;;;;1.30;1.20;;;18.70;99.90;;;19.06;nan;99409.22;4990639;28;21291;-65
2023/07/25 04:27:56;;;;;;;1.50;1.40;;;18.80;99.90;;;19.16;nan;99415.81;4989111;28;20707;-65
2023/07/25 04:30:23;;;;;;;1.60;1.50;;;18.80;99.90;;;19.22;nan;99422.97;4991879;28;21237;-65
2023/07/25 04:32:50;;;;;;;1.87;1.77;;;18.90;99.90;;;19.26;nan;99432.13;4977189;28;21195;-64
2023/07/25 04:35:17;;;;;;;3.93;2.00;;;19.00;99.90;;;19.28;nan;99437.22;4986815;28;20646;-65
2023/07/25 04:37:44;;;;;;;1.60;1.50;;;19.00;99.90;;;19.27;nan;99419.75;4987830;28;20677;-65
2023/07/25 04:40:11;;;;;;;1.47;1.40;;;19.00;99.90;;;19.30;nan;99429.91;4971005;28;20666;-67
2023/07/25 04:42:38;;;;;;;1.93;1.80;;;19.00;99.90;;;19.36;nan;99445.03;4982480;28;20642;-69
2023/07/25 04:45:06;;;;;;;1.70;1.60;;;19.00;99.90;;;19.43;nan;99445.06;4985360;28;20642;-67
2023/07/25 04:47:33;;;;;;;3.97;1.57;;;19.10;99.90;;;19.47;nan;99449.78;4973945;28;20654;-67
2023/07/25 04:50:00;;;;;;;1.77;1.67;;;19.10;99.90;;;19.50;nan;99451.22;4989811;28;20638;-67
2023/07/25 04:52:27;;;;;;;2.03;1.93;;;19.10;99.90;;;19.52;nan;99450.00;4980816;28;20665;-66
2023/07/25 04:54:57;;;;;;;1.93;1.73;;;19.20;99.90;;;19.53;nan;99451.63;4973311;28;20639;-64
2023/07/25 04:57:25;;;;;;;1.30;1.20;;;19.20;99.90;;;19.54;nan;99452.44;4984280;28;20678;-65
2023/07/25 04:59:52;;;;;;;1.63;1.53;;;19.20;99.90;;;19.56;nan;99453.06;4988287;28;20637;-67
2023/07/25 05:02:20;;;;;;;1.47;1.37;;;19.20;99.90;;;19.58;nan;99459.81;4977854;28;20635;-67
2023/07/25 05:04:47;;;;;;;1.30;1.30;;;19.20;99.90;;;19.61;nan;99454.13;4982265;28;20633;-68
2023/07/25 05:07:17;;;;;;;1.40;1.37;;;19.30;99.90;;;19.62;nan;99455.75;4976748;28;20697;-67
2023/07/25 05:09:44;;;;;;;1.40;1.40;;;19.30;99.90;;;19.60;nan;99459.59;4972301;28;20620;-67
2023/07/25 05:12:13;;;;;;;1.73;1.23;;;19.30;99.90;;;19.62;nan;99463.69;4970735;28;21001;-63
2023/07/25 05:14:40;;;;;;;1.87;1.70;;;19.30;99.90;;;19.61;nan;99459.44;4982073;28;20635;-65
2023/07/25 05:17:07;;;;;;;1.20;1.20;;;19.30;99.90;;;19.61;nan;99459.44;4969423;28;20651;-64
2023/07/25 05:19:34;;;;;;;1.60;1.53;;;19.30;99.90;;;19.54;nan;99466.50;4984553;28;20631;-66
2023/07/25 05:22:01;;;;;;;1.40;1.33;;;19.20;99.90;;;19.52;nan;99467.69;4985101;28;20634;-65
2023/07/25 05:24:29;;;;;;;1.60;1.50;;;19.20;99.90;;;19.50;nan;99459.97;4984480;28;20626;-66
2023/07/25 05:26:56;;;;;;;2.13;1.70;;;19.20;99.90;;;19.49;nan;99468.91;4984524;28;20950;-65
2023/07/25 05:29:25;;;;;;;1.40;1.30;;;19.20;99.90;;;19.52;nan;99471.19;4971152;28;20635;-66
2023/07/25 05:31:52;;;;;;;1.43;1.33;;;19.20;99.90;;;19.54;nan;99469.16;4983851;28;20631;-65
2023/07/25 05:34:19;;;;;;;1.60;1.50;;;19.20;99.90;;;19.59;nan;99471.22;4982883;28;20661;-69
2023/07/25 05:36:46;;;;;;;1.50;1.40;;;19.20;99.90;;;19.60;nan;99471.00;4979637;28;20725;-64
2023/07/25 05:39:13;;;;;;;1.17;1.17;;;19.30;99.90;;;19.61;nan;99485.06;4972834;28;20670;-67
2023/07/25 05:41:42;;;;;;;1.60;1.50;;;19.30;99.90;;;19.57;nan;99478.53;4974756;28;21223;-66
2023/07/25 05:44:09;;;;;;;1.40;1.30;;;19.30;99.90;;;19.50;nan;99482.97;4978536;28;20642;-68
2023/07/25 05:46:36;;;;;;;1.27;1.17;;;19.20;99.90;;;19.46;nan;99481.72;4972141;28;20674;-67
2023/07/25 05:49:03;;;;;;;1.47;1.37;;;19.20;99.90;;;19.45;nan;99480.06;4968410;28;20639;-67
2023/07/25 05:51:33;;;;;;;1.40;1.30;;;19.10;99.90;;;19.45;nan;99475.59;4970851;28;20632;-67
2023/07/25 05:54:00;;;;;;;4.83;1.20;;;19.10;99.90;;;19.46;nan;99465.84;4960989;28;20658;-65
2023/07/25 05:56:27;;;;;;;1.10;1.10;;;19.10;99.90;;;19.41;nan;99455.84;4967044;28;21456;-66
2023/07/25 05:58:54;;;;;;;3.10;1.40;;;19.10;99.90;;;19.43;nan;99459.09;4968104;28;21045;-68
2023/07/25 06:01:21;;;;;;;1.17;1.17;;;19.10;99.90;;;19.49;nan;99460.97;4967691;28;20639;-66
2023/07/25 06:03:48;;;;;;;0.90;0.90;;;19.20;99.90;;;19.46;nan;99457.91;4962882;28;21210;-67
2023/07/25 06:06:15;;;;;;;1.43;1.33;;;19.20;99.90;;;19.38;nan;99453.56;4965347;28;20671;-65
2023/07/25 06:08:42;;;;;;;1.27;1.20;;;19.10;99.90;;;19.36;nan;99447.66;4965801;28;20646;-67
2023/07/25 06:11:10;;;;;;;1.40;1.30;;;19.00;99.90;;;19.36;nan;99447.66;4978223;28;20645;-67
2023/07/25 06:13:37;;;;;;;1.47;1.20;;;19.00;99.90;;;19.38;nan;99435.06;4977981;28;21200;-65
2023/07/25 06:16:04;;;;;;;1.43;1.27;;;19.10;99.90;;;19.39;nan;99444.66;4988471;28;20673;-68
2023/07/25 06:18:31;;;;;;;1.47;1.37;;;19.00;99.90;;;19.37;nan;99432.63;4984663;28;21054;-67
2023/07/25 06:20:58;;;;;;;2.20;1.40;;;19.00;99.90;;;19.34;nan;99429.34;4989899;28;20713;-67
2023/07/25 06:23:25;;;;;;;1.00;1.00;;;19.10;99.90;;;19.32;nan;99430.53;4979779;28;21204;-66
2023/07/25 06:25:52;;;;;;;1.50;1.40;;;19.00;99.90;;;19.26;nan;99432.13;4967448;28;20659;-67
2023/07/25 06:28:19;;;;;;;1.20;1.20;;;19.00;99.90;;;19.17;nan;99435.09;4964494;28;20643;-67
2023/07/25 06:30:46;;;;;;;1.67;1.57;;;18.90;99.90;;;19.12;nan;99432.25;4967733;28;21102;-66
2023/07/25 06:33:15;;;;;;;1.43;1.33;;;18.90;99.90;;;19.10;nan;99424.50;4966689;28;20646;-67
2023/07/25 06:35:42;;;;;;;1.57;1.50;;;18.80;99.90;;;19.06;nan;99422.44;4970043;28;20667;-66
2023/07/25 06:38:09;;;;;;;2.03;1.73;;;18.80;99.90;;;18.99;nan;99421.59;4971555;28;20669;-66
2023/07/25 06:40:36;;;;;;;1.87;1.77;;;18.70;99.90;;;19.00;nan;99423.19;4982177;28;20634;-66
2023/07/25 06:43:03;;;;;;;1.60;1.50;;;18.70;99.90;;;18.99;nan;99427.69;4972035;28;21212;-66
2023/07/25 06:45:30;;;;;;;1.30;1.27;;;18.70;99.90;;;19.00;nan;99431.97;4977713;28;20654;-66
2023/07/25 06:47:57;;;;;;;1.83;1.60;;;18.70;99.90;;;18.99;nan;99435.63;4982185;28;20642;-67
2023/07/25 06:50:24;;;;;;;1.90;1.80;;;18.70;99.90;;;18.95;nan;99412.41;4978241;28;21233;-69
2023/07/25 06:52:51;;;;;;;2.17;1.70;;;18.70;99.90;;;18.89;nan;99413.19;4970003;28;20642;-66
2023/07/25 06:55:19;;;;;;;1.60;1.40;;;18.60;99.90;;;18.85;nan;99411.91;4974441;28;20665;-66
2023/07/25 06:57:46;;;;;;;2.07;1.90;;;18.60;99.90;;;18.94;nan;99410.75;4985783;28;20627;-66
2023/07/25 07:00:14;;;;;;;1.30;1.20;;;18.60;99.90;;;19.01;nan;99404.53;4974857;28;21230;-66
2023/07/25 07:02:41;;;;;;;1.47;1.37;;;18.70;99.90;;;19.02;nan;99403.50;4984946;28;20641;-67
2023/07/25 07:05:08;;;;;;;2.83;2.10;;;18.80;99.90;;;19.08;nan;99404.56;4984598;28;20630;-69
2023/07/25 07:07:54;;;;;;;1.30;1.20;;;18.80;99.90;;;19.42;nan;99411.69;4992493;28;20635;-66
2023/07/25 07:10:21;;;;;;;2.13;1.93;;;19.00;99.90;;;19.58;nan;99403.41;4978257;28;20638;-64
2023/07/25 07:12:48;;;;;;;2.37;1.47;;;19.20;99.90;;;19.61;nan;99397.75;4983695;28;20625;-66
2023/07/25 07:15:16;;;;;;;1.43;1.33;;;19.30;99.90;;;19.61;nan;99395.91;4970347;28;20681;-65
2023/07/25 07:17:43;;;;;;;1.57;1.23;;;19.30;99.90;;;19.56;nan;99392.22;4984737;28;20650;-66
2023/07/25 07:20:10;;;;;;;1.33;1.23;;;19.20;99.90;;;19.50;nan;99383.25;4987761;28;21014;-65
2023/07/25 07:22:37;;;;;;;1.70;1.50;;;19.20;99.90;;;19.46;nan;99381.19;4982493;28;21005;-68
2023/07/25 07:25:05;;;;;;;1.63;1.53;;;19.10;99.90;;;19.63;nan;99383.31;4972210;28;20634;-65
2023/07/25 07:27:32;;;;;;;3.87;1.13;;;19.30;99.90;;;19.77;nan;99363.81;4975963;28;20630;-64
2023/07/25 07:29:59;;;;;;;1.17;1.17;;;19.50;99.90;;;20.07;nan;99362.44;4970906;28;20651;-65
2023/07/25 07:32:26;;;;;;;1.20;1.20;;;19.70;99.90;;;21.05;nan;99363.47;4972856;28;20631;-65
2023/07/25 07:34:53;;;;;;;1.07;1.07;;;20.40;99.90;;;22.25;nan;99364.38;4983232;28;20646;-65
2023/07/25 07:37:20;;;;;;;1.20;1.10;;;21.70;99.90;;;22.58;nan;99374.72;4992412;28;20634;-66
2023/07/25 07:39:47;;;;;;;1.50;1.40;;;22.20;99.90;;;22.29;nan;99371.69;4984399;28;20758;-63
2023/07/25 07:42:14;;;;;;;1.33;1.33;;;22.00;99.90;;;21.85;nan;99363.00;4981690;28;21203;-64
2023/07/25 07:44:41;;;;;;;1.30;1.20;;;21.60;99.90;;;21.37;nan;99355.44;4975208;28;20830;-66
2023/07/25 07:47:08;;;;;;;1.30;1.30;;;21.20;99.90;;;21.18;nan;99350.19;4978710;28;21266;-65
2023/07/25 07:49:35;;;;;;;1.70;1.60;;;20.90;99.90;;;21.62;nan;99356.31;4972176;28;20643;-64
2023/07/25 07:52:02;;;;;;;1.00;1.00;;;21.20;99.90;;;22.81;nan;99356.31;4970794;28;20640;-64
2023/07/25 07:54:33;;;;;;;0.70;0.70;;;22.30;99.90;;;23.18;nan;99355.34;4974812;28;20735;-63
2023/07/25 07:57:00;;;;;;;1.60;1.50;;;22.90;99.90;;;22.76;nan;99351.69;4982573;28;20673;-65
2023/07/25 07:59:27;;;;;;;1.20;1.20;;;22.60;99.90;;;22.95;nan;99353.34;4986638;28;21067;-66
2023/07/25 08:01:54;;;;;;;1.10;1.00;;;22.60;99.90;;;23.36;nan;99354.56;4985350;28;20643;-66
2023/07/25 08:04:21;;;;;;;0.87;0.87;;;23.00;99.90;;;23.23;nan;99354.66;4974271;28;20627;-65
2023/07/25 08:06:48;;;;;;;1.00;1.00;;;23.10;99.90;;;22.82;nan;99348.16;4978681;28;21007;-64
2023/07/25 08:09:15;;;;;;;1.50;1.40;;;22.60;99.90;;;22.56;nan;99337.72;4972436;28;20665;-64
2023/07/25 08:11:42;;;;;;;1.00;0.97;;;22.30;99.90;;;23.17;nan;99337.72;4973388;28;20642;-65
2023/07/25 08:14:09;;;;;;;1.40;1.20;;;22.80;99.90;;;24.62;nan;99338.16;4969599;28;20634;-67
2023/07/25 08:16:36;;;;;;;0.90;0.90;;;24.00;99.90;;;26.03;nan;99342.94;4978712;28;20720;-68
2023/07/25 08:19:03;;;;;;;0.80;0.80;;;25.50;99.90;;;26.85;nan;99338.69;4978318;28;20674;-66
2023/07/25 08:21:30;;;;;;;1.00;1.00;;;26.50;99.90;;;26.56;nan;99348.66;4976553;28;20648;-67
2023/07/25 08:24:00;;;;;;;1.03;1.03;;;26.50;99.90;;;25.50;nan;99340.63;4988145;28;20720;-67
2023/07/25 08:26:27;;;;;;;1.70;1.60;;;25.50;99.90;;;24.73;nan;99346.38;4984362;28;21056;-67
2023/07/25 08:28:54;;;;;;;2.00;1.50;;;24.70;99.90;;;24.03;nan;99351.59;4979858;28;20665;-66
2023/07/25 08:31:21;;;;;;;1.60;1.50;;;24.00;99.90;;;23.51;nan;99353.13;4988396;28;20637;-67
2023/07/25 08:33:48;;;;;;;5.63;1.30;;;23.40;99.90;;;22.81;nan;99346.50;4978238;28;20650;-67
2023/07/25 08:36:16;;;;;;;1.07;1.00;;;22.80;99.90;;;22.24;nan;99346.78;4977326;28;20669;-69
2023/07/25 08:38:43;;;;;;;2.70;1.57;;;22.20;99.90;;;21.78;nan;99348.91;4976413;28;20678;-68
2023/07/25 08:41:16;;;;;;;4.87;1.73;;;21.60;99.90;;;21.47;nan;99347.00;4970417;28;20673;-67
2023/07/25 08:43:44;;;;;;;1.43;1.33;;;21.30;99.90;;;21.35;nan;99344.22;4973432;28;20649;-65
2023/07/25 08:46:13;;;;;;;1.60;1.50;;;21.10;99.90;;;21.25;nan;99343.81;4960924;28;20697;-63
2023/07/25 08:48:42;;;;;;;1.10;1.10;;;21.00;99.90;;;21.18;nan;99353.66;4975004;28;21255;-64
2023/07/25 08:51:19;;;;;;;1.03;0.93;;;20.90;99.90;;;21.00;nan;99350.81;4978641;28;20646;-64
2023/07/25 08:54:05;;;;;;;0.90;0.90;;;20.80;99.90;;;20.85;nan;99353.69;4955932;28;20649;-65
2023/07/25 08:56:35;;;;;;;1.30;1.20;;;20.60;99.90;;;20.76;nan;99362.09;4976600;28;20665;-65
2023/07/25 08:59:03;;;;;;;1.33;1.23;;;20.50;99.90;;;20.73;nan;99381.88;4981916;28;20678;-64
2023/07/25 09:01:31;;;;;;;1.07;1.07;;;20.40;99.90;;;20.62;nan;99405.50;4987843;28;20635;-63
2023/07/25 09:04:01;;;;;;;0.93;0.87;;;20.40;99.90;;;20.44;nan;99386.75;4972586;28;20721;-67
2023/07/25 09:06:31;;;;;;;0.70;0.70;;;20.20;99.90;;;20.30;nan;99412.41;4973316;28;20679;-66
2023/07/25 09:08:58;;;;;;;0.70;0.70;;;20.10;99.90;;;20.11;nan;99421.94;4976852;28;20640;-66
2023/07/25 09:11:26;;;;;;;0.70;0.70;;;19.90;99.90;;;19.94;nan;99417.19;4982532;28;20638;-65
2023/07/25 09:13:53;;;;;;;1.00;1.00;;;19.70;99.90;;;19.81;nan;99425.91;4983391;28;20642;-68
2023/07/25 09:16:20;;;;;;;1.57;1.10;;;19.60;99.90;;;19.95;nan;99424.13;4982977;28;20662;-65
2023/07/25 09:18:47;;;;;;;1.40;1.30;;;19.60;99.90;;;20.20;nan;99432.31;4984610;28;20677;-66
2023/07/25 09:21:15;;;;;;;2.03;1.93;;;19.90;99.90;;;20.50;nan;99434.47;4966195;28;20639;-64
2023/07/25 09:23:59;;;;;;;1.40;1.30;;;20.10;99.90;;;20.93;nan;99428.75;4961416;28;20706;-65
2023/07/25 09:26:30;;;;;;;1.00;1.00;;;20.50;99.90;;;21.36;nan;99430.72;4968786;28;20667;-65
2023/07/25 09:28:59;;;;;;;2.13;1.93;;;21.00;99.90;;;21.63;nan;99431.47;4964840;28;20655;-66
2023/07/25 09:31:28;;;;;;;2.20;1.93;;;21.30;99.90;;;21.72;nan;99419.59;4970608;28;21212;-68
2023/07/25 09:33:56;;;;;;;2.03;1.93;;;21.40;99.90;;;21.83;nan;99410.19;4968736;28;20650;-65
2023/07/25 09:36:23;;;;;;;1.70;1.60;;;21.50;99.90;;;21.91;nan;99415.25;4969166;28;20666;-64
2023/07/25 09:38:54;;;;;;;1.27;1.27;;;21.60;99.90;;;21.98;nan;99416.00;4965974;28;20674;-65
2023/07/25 09:41:25;;;;;;;1.33;1.23;;;21.70;99.90;;;21.82;nan;99437.72;4984056;28;21196;-65
2023/07/25 09:43:52;;;;;;;1.30;1.20;;;21.60;99.90;;;21.60;nan;99442.50;4962408;28;20644;-64
2023/07/25 09:46:19;;;;;;;1.60;1.60;;;21.30;99.90;;;21.48;nan;99436.22;4969401;28;20659;-67
2023/07/25 09:48:51;;;;;;;1.90;1.80;;;21.20;99.90;;;21.46;nan;99438.25;4963931;28;20642;-64
2023/07/25 09:51:19;;;;;;;1.73;1.23;;;21.20;99.90;;;21.49;nan;99446.63;4975148;28;20650;-65
2023/07/25 09:53:55;;;;;;;3.43;1.40;;;21.20;99.90;;;21.43;nan;99454.59;4971700;28;20718;-65
2023/07/25 09:56:24;;;;;;;1.30;1.20;;;21.20;99.90;;;21.19;nan;99466.69;4978102;28;20674;-67
2023/07/25 09:58:52;;;;;;;1.03;1.03;;;21.00;99.90;;;21.00;nan;99464.81;4971013;28;20683;-64
2023/07/25 10:01:33;;;;;;;1.30;1.30;;;20.80;99.90;;;20.81;nan;99450.56;4993133;28;20634;-65
2023/07/25 10:04:01;;;;;;;2.30;1.87;;;20.60;99.90;;;20.74;nan;99446.28;4986301;28;20677;-65
2023/07/25 10:06:28;;;;;;;1.50;1.40;;;20.50;99.90;;;20.70;nan;99447.69;4972332;28;20666;-66
2023/07/25 10:08:57;;;;;;;1.70;1.60;;;20.40;99.90;;;20.64;nan;99456.47;4971453;28;21196;-64
2023/07/25 10:11:24;;;;;;;1.30;1.30;;;20.40;99.90;;;20.52;nan;99458.09;4985380;28;20646;-65
2023/07/25 10:13:52;;;;;;;1.80;1.70;;;20.30;99.90;;;20.38;nan;99464.41;4972151;28;20643;-65
2023/07/25 10:16:21;;;;;;;1.90;1.80;;;20.20;99.90;;;20.31;nan;99459.09;4976409;28;20659;-65
2023/07/25 10:18:57;;;;;;;2.50;2.30;;;20.10;99.90;;;20.37;nan;99441.56;4972888;28;20696;-65
2023/07/25 10:21:29;;;;;;;2.00;1.90;;;20.10;99.90;;;20.52;nan;99443.03;4976003;28;21207;-66
2023/07/25 10:24:02;;;;;;;2.30;2.10;;;20.20;99.90;;;20.70;nan;99453.00;4976677;28;20639;-66
2023/07/25 10:26:29;;;;;;;2.70;2.50;;;20.40;99.90;;;20.95;nan;99467.28;4983130;28;20662;-66
2023/07/25 10:29:01;;;;;;;1.70;1.60;;;20.60;99.90;;;21.12;nan;99481.81;4976171;28;21029;-66
2023/07/25 10:31:33;;;;;;;1.70;1.70;;;20.80;99.90;;;21.29;nan;99488.31;4976797;28;20639;-67
2023/07/25 10:34:01;;;;;;;2.60;1.60;;;21.00;99.90;;;21.55;nan;99490.09;4987191;28;20646;-67